Time;durP1;ratioP1;P1;durP2;ratioP2;P2;SDS_P1;SDS_P2;PMS_P1;PMS_P2;Temp;Humidity;BMP_temperature;BMP_pressure;BME280_temperature;BME280_humidity;BME280_pressure;Samples;Min_cycle;Max_cycle;Signal;HPM_P1;HPM_P2
2023/12/03 00:00:03;;;;;;;;;;;;;;;-4.25;100.00;100860.13;4990873;28;20022;-75
2023/12/03 00:02:31;;;;;;;23.20;11.65;;;;;;;-4.23;100.00;100875.72;5003441;28;19924;-75
2023/12/03 00:04:58;;;;;;;;;;;;;;;-4.30;100.00;100885.56;5006378;28;20030;-76
2023/12/03 00:07:24;;;;;;;27.58;12.50;;;;;;;-4.30;100.00;100889.94;4971365;28;19948;-75
2023/12/03 00:09:49;;;;;;;;;;;;;;;-4.36;100.00;100884.97;4971729;28;20062;-75
2023/12/03 00:12:15;;;;;;;27.75;12.77;;;;;;;-4.37;100.00;100873.69;4988516;28;20021;-75
2023/12/03 00:14:40;;;;;;;;;;;;;;;-4.37;100.00;100886.72;4971562;28;20042;-75
2023/12/03 00:17:05;;;;;;;;;;;;;;;-4.34;100.00;100897.03;4988718;28;19923;-75
2023/12/03 00:19:30;;;;;;;33.10;17.57;;;;;;;-4.51;100.00;100876.03;4992740;28;19917;-76
2023/12/03 00:21:56;;;;;;;;;;;;;;;-4.46;100.00;100893.16;4986862;28;20104;-76
2023/12/03 00:24:21;;;;;;;;;;;;;;;-4.49;100.00;100884.63;4989096;28;19968;-75
2023/12/03 00:26:47;;;;;;;;;;;;;;;-4.48;100.00;100894.13;5004105;28;20364;-75
2023/12/03 00:29:12;;;;;;;;;;;;;;;-4.54;100.00;100897.84;4988838;28;19921;-76
2023/12/03 00:31:38;;;;;;;28.67;13.85;;;;;;;-4.64;100.00;100883.47;5003313;28;20361;-76
2023/12/03 00:34:04;;;;;;;;;;;;;;;-4.60;100.00;100897.25;4988747;28;20092;-75
2023/12/03 00:36:29;;;;;;;32.35;14.30;;;;;;;-4.66;100.00;100893.13;4988190;28;19914;-75
2023/12/03 00:38:55;;;;;;;29.75;14.25;;;;;;;-4.70;100.00;100887.19;4988231;28;20133;-76
2023/12/03 00:41:21;;;;;;;27.70;13.52;;;;;;;-4.81;100.00;100884.16;4970516;28;20045;-76
2023/12/03 00:43:46;;;;;;;;;;;;;;;-4.78;100.00;100893.63;4988465;28;20109;-76
2023/12/03 00:46:11;;;;;;;34.88;14.70;;;;;;;-4.79;100.00;100899.75;4988423;28;19941;-76
2023/12/03 00:48:38;;;;;;;29.90;13.20;;;;;;;-4.86;100.00;100893.09;4987922;28;20389;-75
2023/12/03 00:51:04;;;;;;;31.73;12.73;;;;;;;-4.82;100.00;100902.44;4971042;28;20507;-75
2023/12/03 00:53:29;;;;;;;;;;;;;;;-4.79;100.00;100910.16;4988095;28;20034;-75
2023/12/03 00:55:54;;;;;;;30.35;11.88;;;;;;;-4.79;100.00;100915.38;4996729;28;19952;-75
2023/12/03 00:58:22;;;;;;;;;;;;;;;-4.85;100.00;100897.38;4975872;28;20844;-75
2023/12/03 01:00:48;;;;;;;27.88;13.50;;;;;;;-4.83;100.00;100906.81;4970492;28;19942;-75
2023/12/03 01:03:13;;;;;;;;;;;;;;;-4.81;100.00;100905.00;4988074;28;20406;-75
2023/12/03 01:05:38;;;;;;;;;;;;;;;-4.87;100.00;100892.22;4991095;28;19956;-76
2023/12/03 01:08:04;;;;;;;30.67;14.93;;;;;;;-5.00;100.00;100878.00;5004336;28;19918;-75
2023/12/03 01:10:30;;;;;;;25.88;11.50;;;;;;;-5.02;100.00;100874.59;4996631;28;20567;-75
2023/12/03 01:12:55;;;;;;;28.63;13.60;;;;;;;-5.05;100.00;100861.72;4969765;28;20038;-75
2023/12/03 01:15:21;;;;;;;;;;;;;;;-5.07;100.00;100860.91;4970619;28;20048;-75
2023/12/03 01:17:46;;;;;;;;;;;;;;;-5.06;100.00;100865.22;5003205;28;19909;-75
2023/12/03 01:20:11;;;;;;;30.40;11.75;;;;;;;-5.14;100.00;100855.09;4970205;28;19913;-75
2023/12/03 01:22:37;;;;;;;26.67;13.50;;;;;;;-5.20;100.00;100843.16;4969797;28;20433;-75
2023/12/03 01:25:02;;;;;;;25.55;12.85;;;;;;;-5.22;100.00;100834.59;4970866;28;20073;-75
2023/12/03 01:27:31;;;;;;;23.98;12.00;;;;;;;-5.31;100.00;100816.72;4989181;28;20891;-75
2023/12/03 01:29:56;;;;;;;25.65;12.40;;;;;;;-5.31;100.00;100820.16;4987231;28;20019;-75
2023/12/03 01:32:21;;;;;;;;;;;;;;;-5.27;100.00;100833.03;5002388;28;20183;-75
2023/12/03 01:34:46;;;;;;;;;;;;;;;-5.36;100.00;100822.09;4999948;28;19921;-75
2023/12/03 01:37:12;;;;;;;29.27;11.77;;;;;;;-5.38;100.00;100826.50;4986165;28;19941;-75
2023/12/03 01:39:37;;;;;;;;;;;;;;;-5.43;100.00;100831.06;4970152;28;20336;-75
2023/12/03 01:42:06;;;;;;;;;;;;;;;-5.45;100.00;100819.84;4969763;28;19914;-75
2023/12/03 01:44:34;;;;;;;26.73;12.52;;;;;;;-5.41;100.00;100826.63;4987124;28;19913;-74
2023/12/03 01:46:59;;;;;;;26.63;12.82;;;;;;;-5.37;100.00;100843.81;4986929;28;20030;-76
2023/12/03 01:49:25;;;;;;;;;;;;;;;-5.42;100.00;100847.50;4970142;28;20477;-75
2023/12/03 01:51:51;;;;;;;25.23;12.82;;;;;;;-5.47;100.00;100857.25;4985289;28;20008;-75
2023/12/03 01:54:17;;;;;;;22.73;11.15;;;;;;;-5.44;100.00;100877.94;4980752;28;20032;-75
2023/12/03 01:56:42;;;;;;;29.38;12.80;;;;;;;-5.37;100.00;100890.66;4991270;28;20122;-75
2023/12/03 01:59:08;;;;;;;28.00;11.63;;;;;;;-5.43;100.00;100880.50;4969264;28;20489;-74
2023/12/03 02:01:33;;;;;;;;;;;;;;;-5.41;100.00;100894.31;4969419;28;20398;-75
2023/12/03 02:03:58;;;;;;;23.15;10.02;;;;;;;-5.42;100.00;100882.19;4969449;28;19988;-75
2023/12/03 02:06:24;;;;;;;26.95;11.60;;;;;;;-5.47;100.00;100867.66;4986733;28;20397;-75
2023/12/03 02:08:49;;;;;;;;;;;;;;;-5.45;100.00;100865.84;4987166;28;20614;-75
2023/12/03 02:11:15;;;;;;;21.63;10.73;;;;;;;-5.51;100.00;100852.13;4987425;28;19972;-75
2023/12/03 02:13:43;;;;;;;20.60;10.25;;;;;;;-5.53;100.00;100843.53;4969024;28;20117;-76
2023/12/03 02:16:09;;;;;;;24.15;10.93;;;;;;;-5.53;100.00;100838.34;4985553;28;20089;-75
2023/12/03 02:18:34;;;;;;;;;;;;;;;-5.49;100.00;100861.66;4993096;28;20030;-75
2023/12/03 02:21:00;;;;;;;22.33;10.38;;;;;;;-5.59;100.00;100843.78;4978362;28;19917;-75
2023/12/03 02:23:29;;;;;;;;;;;;;;;-5.57;100.00;100854.16;4994944;28;20046;-75
2023/12/03 02:25:54;;;;;;;26.40;10.30;;;;;;;-5.81;100.00;100807.31;4971254;28;19909;-75
2023/12/03 02:28:20;;;;;;;26.77;13.02;;;;;;;-5.67;100.00;100845.81;4999748;28;20084;-75
2023/12/03 02:30:48;;;;;;;20.05;9.63;;;;;;;-5.69;100.00;100865.81;4975166;28;20030;-75
2023/12/03 02:33:13;;;;;;;20.45;10.05;;;;;;;-5.57;100.00;100878.41;4991078;28;20049;-76
2023/12/03 02:35:39;;;;;;;26.33;11.13;;;;;;;-5.60;100.00;100865.47;4986248;28;20665;-76
2023/12/03 02:38:04;;;;;;;23.15;10.95;;;;;;;-5.60;100.00;100872.44;4969239;28;20038;-75
2023/12/03 02:40:33;;;;;;;25.63;10.63;;;;;;;-5.59;100.00;100867.19;4969268;28;20038;-75
2023/12/03 02:42:59;;;;;;;26.60;11.63;;;;;;;-5.51;100.00;100887.72;4985645;28;20093;-75
2023/12/03 02:45:24;;;;;;;;;;;;;;;-5.52;100.00;100891.25;5012126;28;20029;-75
2023/12/03 02:47:49;;;;;;;32.25;14.32;;;;;;;-5.60;100.00;100881.09;5007994;28;20028;-75
2023/12/03 02:50:15;;;;;;;23.60;11.95;;;;;;;-5.68;100.00;100862.34;4989163;28;20033;-75
2023/12/03 02:52:41;;;;;;;47.60;19.48;;;;;;;-5.84;100.00;100841.22;4999480;28;20034;-75
2023/12/03 02:55:07;;;;;;;34.97;15.13;;;;;;;-5.73;100.00;100885.91;4999249;28;20030;-75
2023/12/03 02:57:32;;;;;;;38.20;16.27;;;;;;;-5.74;100.00;100906.75;4997913;28;20054;-75
2023/12/03 02:59:58;;;;;;;;;;;;;;;-5.66;100.00;100954.16;4980049;28;20429;-75
2023/12/03 03:02:26;;;;;;;32.20;14.23;;;;;;;-5.56;100.00;100994.56;4978348;28;19913;-75
2023/12/03 03:04:51;;;;;;;34.42;14.43;;;;;;;-5.47;100.00;101015.97;4986157;28;20041;-74
2023/12/03 03:07:17;;;;;;;;;;;;;;;-5.51;100.00;101007.41;4968980;28;20481;-75
2023/12/03 03:09:42;;;;;;;;;;;;;;;-5.51;100.00;101017.81;4970775;28;19940;-75
2023/12/03 03:12:07;;;;;;;;;;;;;;;-5.58;100.00;101014.56;4986365;28;19920;-75
2023/12/03 03:14:33;;;;;;;28.23;13.20;;;;;;;-5.56;100.00;101017.97;4986175;28;19924;-75
2023/12/03 03:16:58;;;;;;;28.67;13.88;;;;;;;-5.53;100.00;101033.47;4994024;28;20093;-75
2023/12/03 03:19:23;;;;;;;;;;;;;;;-5.56;100.00;101027.53;4986597;28;20031;-75
2023/12/03 03:21:48;;;;;;;;;;;;;;;-5.65;100.00;101010.47;4968837;28;19929;-75
2023/12/03 03:24:14;;;;;;;29.80;13.40;;;;;;;-5.65;100.00;101015.69;4977979;28;19917;-75
2023/12/03 03:26:39;;;;;;;;;;;;;;;-5.78;100.00;100996.22;4973918;28;20092;-75
2023/12/03 03:29:06;;;;;;;;;;;;;;;-5.69;100.00;101008.03;4969168;28;19917;-75
2023/12/03 03:31:31;;;;;;;27.20;13.90;;;;;;;-5.70;100.00;101012.41;4985888;28;19913;-75
2023/12/03 03:33:57;;;;;;;26.80;13.98;;;;;;;-5.62;100.00;101018.19;5003784;28;20501;-75
2023/12/03 03:36:22;;;;;;;28.73;14.20;;;;;;;-5.61;100.00;101026.84;5004059;28;20117;-75
2023/12/03 03:38:49;;;;;;;38.30;16.02;;;;;;;-5.75;100.00;101020.34;4990667;28;20026;-74
2023/12/03 03:41:14;;;;;;;33.25;14.93;;;;;;;-5.62;100.00;101030.34;4986228;28;20060;-75
2023/12/03 03:43:39;;;;;;;;;;;;;;;-5.75;100.00;101019.50;5010403;28;20034;-75
2023/12/03 03:46:05;;;;;;;27.92;13.88;;;;;;;-5.81;100.00;101019.72;5006293;28;19920;-75
2023/12/03 03:48:30;;;;;;;37.03;17.38;;;;;;;-5.66;100.00;101042.63;4995787;28;20037;-75
2023/12/03 03:50:56;;;;;;;37.42;15.52;;;;;;;-5.74;100.00;101042.88;5010730;28;20030;-75
2023/12/03 03:53:21;;;;;;;35.92;15.32;;;;;;;-5.82;100.00;101031.03;4981540;28;20022;-75
2023/12/03 03:55:47;;;;;;;;;;;;;;;-5.72;100.00;101048.00;4979904;28;20067;-75
2023/12/03 03:58:13;;;;;;;28.90;13.75;;;;;;;-5.70;100.00;101053.16;4982417;28;20009;-75
2023/12/03 04:00:41;;;;;;;30.83;14.18;;;;;;;-5.79;100.00;101043.91;4980717;28;20128;-76
2023/12/03 04:03:09;;;;;;;34.80;15.27;;;;;;;-6.04;100.00;101018.78;4992387;28;20092;-75
2023/12/03 04:05:35;;;;;;;33.72;15.05;;;;;;;-6.03;100.00;101033.44;4991403;28;20129;-75
2023/12/03 04:08:00;;;;;;;36.10;15.05;;;;;;;-5.96;100.00;101050.56;4987630;28;20468;-75
2023/12/03 04:10:26;;;;;;;33.15;14.75;;;;;;;-5.84;100.00;101069.22;4975930;28;20038;-75
2023/12/03 04:12:51;;;;;;;31.17;14.40;;;;;;;-5.71;100.00;101078.34;5016051;28;20037;-75
2023/12/03 04:15:17;;;;;;;30.90;14.43;;;;;;;-5.73;100.00;101064.53;5000633;28;20030;-75
2023/12/03 04:17:43;;;;;;;29.60;14.13;;;;;;;-5.74;100.00;101066.28;4997492;28;20055;-75
2023/12/03 04:20:10;;;;;;;34.25;15.00;;;;;;;-5.77;100.00;101070.72;5006882;28;20041;-75
2023/12/03 04:22:35;;;;;;;35.55;13.43;;;;;;;-5.70;100.00;101077.41;4999408;28;20033;-75
2023/12/03 04:25:00;;;;;;;;;;;;;;;-5.80;100.00;101060.44;4974544;28;20026;-75
2023/12/03 04:27:26;;;;;;;;;;;;;;;-5.82;100.00;101072.63;4988972;28;19910;-74
2023/12/03 04:29:51;;;;;;;33.65;14.52;;;;;;;-5.85;100.00;101076.19;4988805;28;20266;-75
2023/12/03 04:32:17;;;;;;;31.45;14.23;;;;;;;-5.77;100.00;101086.34;5003317;28;20089;-74
2023/12/03 04:34:42;;;;;;;38.22;17.30;;;;;;;-5.59;100.00;101106.53;4990203;28;20080;-74
2023/12/03 04:37:08;;;;;;;36.08;16.23;;;;;;;-5.86;100.00;101081.44;4993388;28;20050;-74
2023/12/03 04:39:34;;;;;;;36.08;16.55;;;;;;;-5.57;100.00;101115.16;5006781;28;20168;-75
2023/12/03 04:42:00;;;;;;;37.70;15.40;;;;;;;-5.46;100.00;101119.13;4973483;28;20030;-74
2023/12/03 04:44:25;;;;;;;;;;;;;;;-5.37;100.00;101118.81;5007096;28;20030;-74
2023/12/03 04:46:50;;;;;;;37.17;15.38;;;;;;;-5.38;100.00;101114.53;4997092;28;20338;-74
2023/12/03 04:49:15;;;;;;;;;;;;;;;-5.16;100.00;101133.72;4972177;28;20042;-74
2023/12/03 04:51:41;;;;;;;;;;;;;;;-5.23;100.00;101121.81;5006785;28;19913;-74
2023/12/03 04:54:06;;;;;;;31.50;12.63;;;;;;;-5.02;100.00;101150.63;4972613;28;19919;-75
2023/12/03 04:56:31;;;;;;;;;;;;;;;-5.10;100.00;101148.28;4990634;28;20792;-75
2023/12/03 04:58:56;;;;;;;;;;;;;;;-5.12;100.00;101144.88;5002538;28;19932;-75
2023/12/03 05:01:22;;;;;;;39.87;13.47;;;;;;;-5.21;100.00;101147.81;4981868;28;19914;-75
2023/12/03 05:03:47;;;;;;;;;;;;;;;-5.14;100.00;101157.94;4979829;28;20384;-75
2023/12/03 05:06:13;;;;;;;26.05;10.45;;;;;;;-5.19;100.00;101157.25;4999628;28;19936;-74
2023/12/03 05:08:38;;;;;;;33.55;12.20;;;;;;;-5.31;100.00;101136.84;4991818;28;20026;-74
2023/12/03 05:11:04;;;;;;;;;;;;;;;-5.34;100.00;101139.53;5003667;28;20710;-75
2023/12/03 05:13:30;;;;;;;;;;;;;;;-5.27;100.00;101158.41;4971029;28;19925;-74
2023/12/03 05:15:55;;;;;;;26.67;12.93;;;;;;;-5.16;100.00;101172.75;4998391;28;19917;-73
2023/12/03 05:18:21;;;;;;;48.55;14.07;;;;;;;-5.20;100.00;101168.56;4978680;28;20042;-74
2023/12/03 05:20:46;;;;;;;48.90;14.95;;;;;;;-5.12;100.00;101183.94;4995914;28;20546;-75
2023/12/03 05:23:12;;;;;;;78.60;16.60;;;;;;;-5.35;100.00;101164.72;5021383;28;20033;-74
2023/12/03 05:25:38;;;;;;;241.23;30.23;;;;;;;-5.60;100.00;101138.63;4987650;28;20493;-74
2023/12/03 05:28:03;;;;;;;;;;;;;;;-5.40;100.00;101173.59;5004297;28;20041;-75
2023/12/03 05:30:28;;;;;;;43.90;13.30;;;;;;;-5.41;100.00;101177.94;4971785;28;19990;-75
2023/12/03 05:32:54;;;;;;;28.13;11.80;;;;;;;-5.41;100.00;101192.69;4973783;28;20425;-75
2023/12/03 05:35:19;;;;;;;33.00;14.23;;;;;;;-5.34;100.00;101202.88;4987187;28;20038;-75
2023/12/03 05:37:44;;;;;;;145.00;22.70;;;;;;;-5.34;100.00;101202.88;4987633;28;20037;-75
2023/12/03 05:40:11;;;;;;;;;;;;;;;-5.21;100.00;101218.94;5004365;28;20042;-74
2023/12/03 05:42:36;;;;;;;;;;;;;;;-5.13;100.00;101223.88;4978951;28;19920;-74
2023/12/03 05:45:01;;;;;;;33.05;12.82;;;;;;;-5.07;100.00;101220.25;4996841;28;19913;-75
2023/12/03 05:47:27;;;;;;;31.25;11.98;;;;;;;-5.11;100.00;101217.72;4989313;28;20037;-74
2023/12/03 05:49:52;;;;;;;;;;;;;;;-5.22;100.00;101206.84;4997364;28;20553;-75
2023/12/03 05:52:17;;;;;;;;;;;;;;;-5.27;100.00;101210.47;4987001;28;20637;-75
2023/12/03 05:54:42;;;;;;;122.97;22.55;;;;;;;-5.75;100.00;101171.22;4999510;28;20060;-75
2023/12/03 05:57:08;;;;;;;90.80;19.13;;;;;;;-5.54;100.00;101213.06;4985523;28;20034;-74
2023/12/03 05:59:33;;;;;;;182.77;28.95;;;;;;;-5.76;100.00;101195.53;4977811;28;20347;-74
2023/12/03 06:01:59;;;;;;;;;;;;;;;-5.52;100.00;101221.69;4971531;28;20030;-74
2023/12/03 06:04:24;;;;;;;101.10;19.88;;;;;;;-5.63;100.00;101218.56;4969658;28;19976;-74
2023/12/03 06:06:49;;;;;;;165.68;24.88;;;;;;;-5.75;100.00;101211.97;4969484;28;20030;-74
2023/12/03 06:09:15;;;;;;;157.00;24.85;;;;;;;-5.78;100.00;101219.88;4969530;28;20546;-75
2023/12/03 06:11:40;;;;;;;;;;;;;;;-5.63;100.00;101237.59;5005231;28;20485;-74
2023/12/03 06:14:05;;;;;;;;;;;;;;;-5.51;100.00;101239.81;4971872;28;19924;-74
2023/12/03 06:16:31;;;;;;;35.20;11.60;;;;;;;-5.40;100.00;101244.69;4977623;28;19953;-74
2023/12/03 06:18:56;;;;;;;39.95;14.35;;;;;;;-5.51;100.00;101237.22;5004493;28;20109;-74
2023/12/03 06:21:22;;;;;;;;;;;;;;;-5.37;100.00;101249.81;4990117;28;20117;-75
2023/12/03 06:23:47;;;;;;;28.88;11.40;;;;;;;-5.41;100.00;101239.53;4991641;28;19932;-74
2023/12/03 06:26:13;;;;;;;42.75;13.52;;;;;;;-5.44;100.00;101224.88;4986358;28;20034;-74
2023/12/03 06:28:41;;;;;;;44.53;14.30;;;;;;;-5.58;100.00;101220.09;4971326;28;20022;-75
2023/12/03 06:31:07;;;;;;;34.10;13.48;;;;;;;-5.41;100.00;101243.00;5003767;28;20093;-75
2023/12/03 06:33:32;;;;;;;;;;;;;;;-5.32;100.00;101247.06;4969390;28;20038;-74
2023/12/03 06:35:58;;;;;;;45.22;14.23;;;;;;;-5.37;100.00;101233.34;4986479;28;19921;-74
2023/12/03 06:38:23;;;;;;;43.90;16.33;;;;;;;-5.22;100.00;101243.28;5001683;28;20523;-74
2023/12/03 06:40:49;;;;;;;47.10;18.25;;;;;;;-5.36;100.00;101216.81;4982874;28;20034;-74
2023/12/03 06:43:14;;;;;;;49.92;18.13;;;;;;;-5.56;100.00;101191.44;4987961;28;20045;-74
2023/12/03 06:45:40;;;;;;;69.93;18.70;;;;;;;-5.96;100.00;101164.97;4994471;28;20038;-74
2023/12/03 06:48:06;;;;;;;93.75;21.85;;;;;;;-6.01;100.00;101179.84;4989096;28;20029;-74
2023/12/03 06:50:32;;;;;;;102.90;23.27;;;;;;;-6.31;100.00;101171.22;5013270;28;20033;-74
2023/12/03 06:52:57;;;;;;;224.13;29.10;;;;;;;-6.29;100.00;101195.41;4995988;28;20080;-74
2023/12/03 06:55:23;;;;;;;169.98;23.10;;;;;;;-6.22;100.00;101227.28;4969145;28;20030;-74
2023/12/03 06:57:48;;;;;;;50.63;17.73;;;;;;;-5.88;100.00;101252.25;4992151;28;20034;-74
2023/12/03 07:00:14;;;;;;;128.15;23.38;;;;;;;-5.94;100.00;101251.53;4986444;28;20537;-74
2023/12/03 07:02:39;;;;;;;64.45;17.38;;;;;;;-5.91;100.00;101263.59;4994087;28;20024;-75
2023/12/03 07:05:05;;;;;;;93.93;20.35;;;;;;;-5.85;100.00;101265.16;4997820;28;20038;-74
2023/12/03 07:07:31;;;;;;;126.32;22.27;;;;;;;-5.90;100.00;101254.03;5003970;28;20125;-74
2023/12/03 07:09:57;;;;;;;81.50;17.20;;;;;;;-6.23;100.00;101222.97;5003330;28;20026;-74
2023/12/03 07:12:22;;;;;;;65.18;18.13;;;;;;;-6.26;100.00;101216.09;4998673;28;20101;-74
2023/12/03 07:14:47;;;;;;;59.53;19.17;;;;;;;-6.23;100.00;101209.97;5004362;28;20026;-74
2023/12/03 07:17:13;;;;;;;46.55;17.23;;;;;;;-6.08;100.00;101225.13;4956563;28;20037;-74
2023/12/03 07:19:46;;;;;;;43.90;17.27;;;;;;;-6.06;100.00;101220.75;4968854;28;20022;-75
2023/12/03 07:22:11;;;;;;;41.28;16.23;;;;;;;-6.27;100.00;101188.41;4985241;28;20146;-74
2023/12/03 07:24:37;;;;;;;71.95;17.10;;;;;;;-6.49;100.00;101163.94;5000836;28;20038;-74
2023/12/03 07:27:03;;;;;;;44.58;15.77;;;;;;;-6.32;100.00;101192.91;5003813;28;20489;-74
2023/12/03 07:29:28;;;;;;;45.75;15.73;;;;;;;-6.27;100.00;101204.00;4987092;28;20069;-74
2023/12/03 07:31:54;;;;;;;52.25;15.50;;;;;;;-6.40;100.00;101192.25;5004187;28;20041;-74
2023/12/03 07:34:19;;;;;;;54.83;19.17;;;;;;;-6.30;100.00;101209.28;4995194;28;20025;-74
2023/12/03 07:36:45;;;;;;;78.35;18.05;;;;;;;-6.49;100.00;101193.38;4972089;28;20074;-74
2023/12/03 07:39:10;;;;;;;52.83;16.95;;;;;;;-6.35;100.00;101213.75;4989273;28;20750;-74
2023/12/03 07:41:36;;;;;;;49.00;15.73;;;;;;;-6.10;100.00;101242.50;4989159;28;20031;-74
2023/12/03 07:44:02;;;;;;;62.15;16.42;;;;;;;-6.29;100.00;101205.81;4997460;28;20026;-74
2023/12/03 07:46:33;;;;;;;50.45;16.60;;;;;;;-6.31;100.00;101212.78;5005076;28;20374;-74
2023/12/03 07:48:59;;;;;;;44.22;17.55;;;;;;;-6.08;100.00;101234.69;4975685;28;20038;-74
2023/12/03 07:51:26;;;;;;;49.72;18.50;;;;;;;-5.84;100.00;101264.28;4971288;28;20037;-75
2023/12/03 07:53:51;;;;;;;53.92;18.05;;;;;;;-5.82;100.00;101254.69;4978481;28;20034;-75
2023/12/03 07:56:17;;;;;;;52.85;17.95;;;;;;;-5.64;100.00;101264.53;4990162;28;20037;-75
2023/12/03 07:58:43;;;;;;;44.88;17.55;;;;;;;-5.91;100.00;101221.16;4981145;28;20385;-75
2023/12/03 08:01:09;;;;;;;44.83;18.05;;;;;;;-5.78;100.00;101233.75;4987497;28;20045;-74
2023/12/03 08:03:35;;;;;;;45.40;17.15;;;;;;;-5.82;100.00;101226.91;4997365;28;20883;-74
2023/12/03 08:06:00;;;;;;;46.00;15.82;;;;;;;-5.73;100.00;101238.81;5007008;28;20124;-75
2023/12/03 08:08:25;;;;;;;49.75;18.10;;;;;;;-5.47;100.00;101255.38;4988956;28;20030;-74
2023/12/03 08:10:51;;;;;;;51.55;18.42;;;;;;;-5.74;100.00;101221.47;4971509;28;20041;-75
2023/12/03 08:13:16;;;;;;;47.40;18.88;;;;;;;-5.96;100.00;101200.50;4988515;28;20030;-75
2023/12/03 08:15:41;;;;;;;57.75;18.92;;;;;;;-5.97;100.00;101210.06;4974671;28;20038;-75
2023/12/03 08:18:07;;;;;;;54.72;17.35;;;;;;;-5.76;100.00;101241.47;5006309;28;20045;-75
2023/12/03 08:20:32;;;;;;;57.90;18.10;;;;;;;-5.49;100.00;101264.97;4988630;28;20066;-75
2023/12/03 08:22:57;;;;;;;55.28;18.70;;;;;;;-5.21;100.00;101291.81;4996312;28;20049;-76
2023/12/03 08:25:23;;;;;;;54.40;17.10;;;;;;;-5.18;100.00;101281.31;4988598;28;20038;-75
2023/12/03 08:27:48;;;;;;;;;;;;;;;-4.97;100.00;101295.38;4988775;28;20029;-75
2023/12/03 08:30:13;;;;;;;;;;;;;;;-5.10;100.00;101268.91;4990282;28;20361;-75
2023/12/03 08:32:39;;;;;;;51.00;17.52;;;;;;;-4.92;100.00;101279.59;4982256;28;19913;-75
2023/12/03 08:35:05;;;;;;;51.53;18.33;;;;;;;-5.02;100.00;101258.22;4993394;28;20871;-75
2023/12/03 08:37:30;;;;;;;45.80;16.42;;;;;;;-4.99;100.00;101252.91;4988326;28;20026;-75
2023/12/03 08:39:55;;;;;;;48.72;16.27;;;;;;;-5.25;100.00;101219.94;4971133;28;20033;-76
2023/12/03 08:42:21;;;;;;;;;;;;;;;-5.00;100.00;101258.19;5004068;28;20504;-74
2023/12/03 08:44:46;;;;;;;;;;;;;;;-4.99;100.00;101268.53;4974518;28;20324;-75
2023/12/03 08:47:11;;;;;;;;;;;;;;;-4.89;100.00;101282.13;4986992;28;19913;-76
2023/12/03 08:49:37;;;;;;;;;;;;;;;-4.73;100.00;101298.97;4994456;28;19961;-75
2023/12/03 08:52:02;;;;;;;;;;;;;;;-5.00;100.00;101273.81;5008628;28;19928;-75
2023/12/03 08:54:27;;;;;;;45.53;14.43;;;;;;;-4.73;100.00;101316.31;4982565;28;19917;-75
2023/12/03 08:56:53;;;;;;;;;;;;;;;-4.53;100.00;101331.31;4999379;28;20035;-75
2023/12/03 08:59:19;;;;;;;37.40;13.32;;;;;;;-4.60;100.00;101320.22;5005911;28;19920;-76
2023/12/03 09:01:45;;;;;;;40.33;13.10;;;;;;;-4.37;100.00;101336.84;4994308;28;20539;-75
2023/12/03 09:04:12;;;;;;;;;;;;;;;-4.44;100.00;101317.97;4992475;28;20041;-74
2023/12/03 09:06:38;;;;;;;34.42;12.25;;;;;;;-4.79;100.00;101256.63;4977065;28;20415;-75
2023/12/03 09:09:04;;;;;;;53.30;13.88;;;;;;;-4.73;100.00;101266.81;4991660;28;20045;-74
2023/12/03 09:11:29;;;;;;;;;;;;;;;-4.79;100.00;101260.06;4989695;28;20030;-74
2023/12/03 09:13:54;;;;;;;34.15;12.75;;;;;;;-4.74;100.00;101265.97;5004125;28;19956;-74
2023/12/03 09:16:20;;;;;;;38.15;13.45;;;;;;;-4.57;100.00;101277.56;5007319;28;20100;-73
2023/12/03 09:18:46;;;;;;;;;;;;;;;-4.33;100.00;101300.19;4990320;28;20046;-74
2023/12/03 09:21:12;;;;;;;33.95;11.70;;;;;;;-4.30;100.00;101292.25;5022583;28;19913;-74
2023/12/03 09:23:38;;;;;;;25.38;11.73;;;;;;;-4.47;100.00;101273.75;4976737;28;20057;-74
2023/12/03 09:26:04;;;;;;;;;;;;;;;-4.20;100.00;101302.38;4970888;28;20022;-74
2023/12/03 09:28:30;;;;;;;28.67;10.35;;;;;;;-4.19;100.00;101294.50;4976998;28;19987;-74
2023/12/03 09:30:58;;;;;;;;;;;;;;;-4.22;100.00;101293.75;5027568;28;20049;-74
2023/12/03 09:33:26;;;;;;;30.33;11.73;;;;;;;-4.47;100.00;101263.34;4987625;28;19913;-74
2023/12/03 09:35:52;;;;;;;34.45;12.40;;;;;;;-4.71;100.00;101258.03;4987518;28;20057;-74
2023/12/03 09:38:17;;;;;;;;;;;;;;;-4.42;100.00;101312.72;4970520;28;20545;-74
2023/12/03 09:40:44;;;;;;;52.22;13.88;;;;;;;-4.23;100.00;101339.00;4970146;28;19913;-75
2023/12/03 09:43:11;;;;;;;62.50;14.63;;;;;;;-4.41;100.00;101320.44;4988484;28;20042;-74
2023/12/03 09:45:37;;;;;;;37.35;13.52;;;;;;;-4.19;100.00;101344.03;4970139;28;20031;-74
2023/12/03 09:48:04;;;;;;;39.42;13.48;;;;;;;-3.99;100.00;101347.69;4989208;28;20037;-74
2023/12/03 09:50:33;;;;;;;35.85;13.30;;;;;;;-4.05;100.00;101330.50;4987697;28;20090;-73
2023/12/03 09:53:00;;;;;;;28.10;12.40;;;;;;;-4.00;100.00;101325.97;4988284;28;20045;-74
2023/12/03 09:55:27;;;;;;;27.70;12.60;;;;;;;-3.93;100.00;101331.84;4970277;28;20045;-74
2023/12/03 09:57:57;;;;;;;24.35;10.55;;;;;;;-3.68;100.00;101342.22;4979949;28;20068;-74
2023/12/03 10:00:23;;;;;;;31.20;12.75;;;;;;;-4.01;100.00;101292.97;4994050;28;20096;-74
2023/12/03 10:02:52;;;;;;;31.88;11.13;;;;;;;-3.60;100.00;101327.13;4975140;28;20113;-74
2023/12/03 10:05:17;;;;;;;31.15;11.38;;;;;;;-3.54;100.00;101306.00;4969197;28;20076;-75
2023/12/03 10:07:45;;;;;;;;;;;;;;;-3.46;100.00;101290.91;5002417;28;20085;-74
2023/12/03 10:10:11;;;;;;;38.85;13.00;;;;;;;-3.56;100.00;101258.22;5004779;28;20400;-75
2023/12/03 10:12:43;;;;;;;;;;;;;;;-4.10;100.00;101209.84;5003222;28;20034;-74
2023/12/03 10:15:12;;;;;;;39.38;12.40;;;;;;;-3.97;100.00;101234.56;4988486;28;19928;-74
2023/12/03 10:17:40;;;;;;;32.30;12.32;;;;;;;-3.94;100.00;101247.47;4981986;28;20482;-74
2023/12/03 10:20:19;;;;;;;34.50;13.15;;;;;;;-3.77;100.00;101259.03;4973030;28;20034;-74
2023/12/03 10:22:44;;;;;;;32.90;12.10;;;;;;;-3.49;100.00;101270.16;4987616;28;20396;-75
2023/12/03 10:25:09;;;;;;;;;;;;;;;-3.19;100.00;101294.16;4975808;28;20038;-74
2023/12/03 10:27:35;;;;;;;24.73;10.33;;;;;;;-3.07;100.00;101285.00;4969438;28;20358;-73
2023/12/03 10:30:01;;;;;;;30.20;13.00;;;;;;;-3.02;100.00;101270.00;4969433;28;20037;-74
2023/12/03 10:32:27;;;;;;;;;;;;;;;-3.10;100.00;101252.94;5023004;23;20508;-73
2023/12/03 10:34:54;;;;;;;26.85;10.70;;;;;;;-3.21;100.00;101235.94;4986865;28;19918;-74
2023/12/03 10:37:19;;;;;;;31.77;10.85;;;;;;;-3.06;100.00;101236.22;4983539;28;20030;-73
2023/12/03 10:39:44;;;;;;;;;;;;;;;-3.02;100.00;101229.94;4992623;28;20403;-74
2023/12/03 10:42:12;;;;;;;31.33;10.20;;;;;;;-3.06;100.00;101210.09;4996500;28;19917;-73
2023/12/03 10:44:38;;;;;;;29.48;10.32;;;;;;;-3.10;100.00;101205.91;5001946;28;20372;-73
2023/12/03 10:47:03;;;;;;;;;;;;;;;-3.09;100.00;101218.94;4969617;28;20129;-73
2023/12/03 10:49:31;;;;;;;;;;;;;;;-2.97;100.00;101239.31;4979264;28;20236;-73
2023/12/03 10:51:57;;;;;;;27.50;11.00;;;;;;;-2.82;100.00;101250.03;4975404;28;19917;-73
2023/12/03 10:54:23;;;;;;;29.65;12.38;;;;;;;-2.68;100.00;101267.75;4990790;28;20034;-73
2023/12/03 10:56:54;;;;;;;30.88;12.40;;;;;;;-2.76;100.00;101249.78;4985453;28;20026;-73
2023/12/03 10:59:22;;;;;;;30.10;11.30;;;;;;;-2.82;100.00;101250.88;4976921;28;20066;-74
2023/12/03 11:01:54;;;;;;;31.40;11.63;;;;;;;-2.64;100.00;101274.56;4980293;28;20037;-73
2023/12/03 11:04:42;;;;;;;30.27;11.65;;;;;;;-2.35;100.00;101312.53;4987588;28;20137;-73
2023/12/03 11:07:14;;;;;;;27.65;11.10;;;;;;;-2.56;100.00;101268.06;4979167;28;20128;-73
2023/12/03 11:09:40;;;;;;;32.20;12.23;;;;;;;-2.30;100.00;101304.47;4992294;28;20120;-73
2023/12/03 11:12:07;;;;;;;37.13;11.85;;;;;;;-2.09;100.00;101321.00;4989355;28;20034;-73
2023/12/03 11:14:34;;;;;;;32.25;11.55;;;;;;;-2.02;100.00;101319.81;5007110;28;20053;-73
2023/12/03 11:17:23;;;;;;;29.65;11.95;;;;;;;-2.01;100.00;101305.84;4992202;28;20926;-73